createdAt,value
2018-02-10T00:00:03.504Z,29.79
2018-02-10T00:01:12.482Z,29.79
2018-02-10T00:02:21.166Z,29.69
2018-02-10T00:03:30.822Z,29.59
2018-02-10T00:04:40.060Z,29.69
2018-02-10T00:05:49.029Z,29.77
2018-02-10T00:06:58.255Z,29.79
2018-02-10T00:08:07.522Z,29.79
2018-02-10T00:09:16.554Z,29.3
2018-02-10T00:10:25.766Z,29.4
2018-02-10T00:11:34.809Z,29.38
2018-02-10T00:12:43.790Z,29.77
2018-02-10T00:13:52.515Z,29.4
2018-02-10T00:15:01.254Z,29.38
2018-02-10T00:16:10.241Z,29.28
2018-02-10T00:17:19.269Z,29.4
2018-02-10T00:18:28.320Z,29.38
2018-02-10T00:19:37.019Z,29.3
2018-02-10T00:20:46.030Z,29.38
2018-02-10T00:21:55.092Z,29.4
2018-02-10T00:23:04.622Z,29.38
2018-02-10T00:24:13.392Z,29.3
2018-02-10T00:25:22.409Z,30.05
2018-02-10T00:26:31.401Z,30.07
2018-02-10T00:27:40.648Z,29.88
2018-02-10T00:28:49.677Z,29.3
2018-02-10T00:29:59.000Z,29.97
2018-02-10T00:31:08.040Z,29.97
2018-02-10T00:32:17.074Z,29.4
2018-02-10T00:33:25.825Z,29.4
2018-02-10T00:34:34.827Z,29.4
2018-02-10T00:35:44.038Z,29.88
2018-02-10T00:36:53.346Z,29.49
2018-02-10T00:38:02.327Z,29.97
2018-02-10T00:39:11.454Z,29.88
2018-02-10T00:40:20.219Z,29.86
2018-02-10T00:41:28.978Z,29.79
2018-02-10T00:42:37.743Z,29.69
2018-02-10T00:43:46.779Z,29.77
2018-02-10T00:44:55.795Z,29.77
2018-02-10T00:46:04.775Z,29.79
2018-02-10T00:47:14.069Z,29.86
2018-02-10T00:48:23.022Z,29.77
2018-02-10T00:49:32.038Z,29.88
2018-02-10T00:50:41.566Z,29.77
2018-02-10T00:51:51.187Z,29.67
2018-02-10T00:52:59.900Z,29.79
2018-02-10T00:54:09.149Z,29.67
2018-02-10T00:55:17.842Z,29.79
2018-02-10T00:56:26.795Z,29.69
2018-02-10T00:57:36.048Z,29.67
2018-02-10T00:58:45.281Z,29.67
2018-02-10T00:59:54.267Z,29.69
2018-02-10T01:01:02.953Z,29.79
2018-02-10T01:02:12.445Z,29.77
2018-02-10T01:03:21.427Z,29.58
2018-02-10T01:04:30.434Z,29.67
2018-02-10T01:05:39.374Z,29.79
2018-02-10T01:06:48.066Z,29.67
2018-02-10T01:07:57.517Z,29.58
2018-02-10T01:09:06.737Z,29.67
2018-02-10T01:10:15.696Z,29.79
2018-02-10T01:11:24.931Z,29.77
2018-02-10T01:12:33.890Z,29.77
2018-02-10T01:13:43.085Z,29.77
2018-02-10T01:14:52.033Z,29.59
2018-02-10T01:16:01.004Z,29.67
2018-02-10T01:17:09.714Z,29.69
2018-02-10T01:18:18.954Z,29.67
2018-02-10T01:19:28.162Z,29.67
2018-02-10T01:20:37.686Z,29.79
2018-02-10T01:21:46.671Z,29.67
2018-02-10T01:22:55.634Z,29.67
2018-02-10T01:24:04.399Z,29.77
2018-02-10T01:25:13.649Z,29.86
2018-02-10T01:26:22.695Z,29.77
2018-02-10T01:27:31.953Z,29.79
2018-02-10T01:28:41.218Z,29.77
2018-02-10T01:29:50.494Z,29.67
2018-02-10T01:31:00.019Z,29.77
2018-02-10T01:32:09.301Z,29.77
2018-02-10T01:33:18.579Z,29.77
2018-02-10T01:34:27.600Z,29.77
2018-02-10T01:35:36.640Z,29.69
2018-02-10T01:36:46.148Z,29.96
2018-02-10T01:37:55.387Z,29.77
2018-02-10T01:39:04.379Z,29.77
2018-02-10T01:40:13.606Z,29.77
2018-02-10T01:41:22.591Z,29.86
2018-02-10T01:42:31.574Z,29.67
2018-02-10T01:43:40.294Z,29.59
2018-02-10T01:44:50.072Z,29.86
2018-02-10T01:45:58.775Z,29.96
2018-02-10T01:47:08.104Z,29.86
2018-02-10T01:48:17.077Z,29.77
2018-02-10T01:49:26.351Z,29.77
2018-02-10T01:50:35.322Z,29.86
2018-02-10T01:51:44.102Z,29.86
2018-02-10T01:52:53.407Z,29.86
2018-02-10T01:54:02.743Z,29.77
2018-02-10T01:55:11.801Z,29.96
2018-02-10T01:56:20.804Z,29.79
2018-02-10T01:57:30.009Z,30.05
2018-02-10T01:58:39.000Z,29.86
2018-02-10T01:59:47.946Z,29.67
2018-02-10T02:00:56.908Z,29.67
2018-02-10T02:02:05.934Z,30.05
2018-02-10T02:03:14.915Z,29.77
2018-02-10T02:04:23.685Z,30.15
2018-02-10T02:05:32.929Z,30.05
2018-02-10T02:06:42.446Z,29.67
2018-02-10T02:07:51.715Z,30.05
2018-02-10T02:09:00.982Z,29.77
2018-02-10T02:10:10.003Z,29.77
2018-02-10T02:11:18.830Z,29.77
2018-02-10T02:12:28.141Z,29.67
2018-02-10T02:13:37.381Z,30.15
2018-02-10T02:14:46.613Z,30.05
2018-02-10T02:15:55.359Z,30.05
2018-02-10T02:17:04.422Z,30.05
2018-02-10T02:18:13.655Z,29.96
2018-02-10T02:19:22.641Z,30.05
2018-02-10T02:20:31.389Z,30.05
2018-02-10T02:21:40.639Z,30.15
2018-02-10T02:22:49.601Z,29.86
2018-02-10T02:23:58.619Z,30.15
2018-02-10T02:25:07.599Z,30.15
2018-02-10T02:26:16.808Z,30.15
2018-02-10T02:27:25.533Z,30.15
2018-02-10T02:28:34.516Z,30.15
2018-02-10T02:29:43.584Z,30.25
2018-02-10T02:30:53.102Z,30.05
2018-02-10T02:32:02.102Z,30.05
2018-02-10T02:33:11.566Z,30.25
2018-02-10T02:34:20.278Z,30.25
2018-02-10T02:35:29.492Z,30.25
2018-02-10T02:36:38.450Z,30.15
2018-02-10T02:37:47.964Z,30.05
2018-02-10T02:38:57.458Z,29.96
2018-02-10T02:40:06.715Z,30.05
2018-02-10T02:41:15.741Z,30.05
2018-02-10T02:42:24.461Z,29.96
2018-02-10T02:43:33.515Z,29.96
2018-02-10T02:44:42.289Z,29.96
2018-02-10T02:45:51.591Z,29.96
2018-02-10T02:47:00.843Z,29.96
2018-02-10T02:48:09.829Z,29.96
2018-02-10T02:49:19.329Z,30.05
2018-02-10T02:50:28.018Z,29.96
2018-02-10T02:51:37.730Z,29.96
2018-02-10T02:52:46.956Z,30.05
2018-02-10T02:53:56.203Z,30.15
2018-02-10T02:55:05.705Z,30.25
2018-02-10T02:56:14.963Z,29.86
2018-02-10T02:57:24.504Z,30.15
2018-02-10T02:58:34.072Z,30.25
2018-02-10T02:59:43.363Z,30.15
2018-02-10T03:00:52.645Z,30.05
2018-02-10T03:02:02.427Z,29.96
2018-02-10T03:03:11.173Z,30.15
2018-02-10T03:04:20.168Z,30.25
2018-02-10T03:05:29.682Z,30.05
2018-02-10T03:06:38.960Z,29.86
2018-02-10T03:07:48.343Z,29.86
2018-02-10T03:08:57.304Z,30.15
2018-02-10T03:10:06.385Z,30.15
2018-02-10T03:11:15.105Z,30.05
2018-02-10T03:12:24.339Z,30.15
2018-02-10T03:13:33.032Z,29.86
2018-02-10T03:14:42.042Z,29.86
2018-02-10T03:15:51.007Z,30.05
2018-02-10T03:16:59.961Z,29.86
2018-02-10T03:18:08.934Z,30.15
2018-02-10T03:19:18.226Z,29.86
2018-02-10T03:20:27.444Z,29.86
2018-02-10T03:21:36.469Z,30.05
2018-02-10T03:22:45.997Z,30.05
2018-02-10T03:23:55.003Z,30.25
2018-02-10T03:25:04.886Z,29.96
2018-02-10T03:26:14.432Z,29.86
2018-02-10T03:27:23.995Z,29.96
2018-02-10T03:28:33.015Z,30.05
2018-02-10T03:29:42.253Z,29.96
2018-02-10T03:30:51.760Z,29.96
2018-02-10T03:32:00.800Z,30.05
2018-02-10T03:33:10.358Z,29.96
2018-02-10T03:34:19.048Z,29.96
2018-02-10T03:35:28.298Z,29.96
2018-02-10T03:36:37.263Z,29.86
2018-02-10T03:37:46.797Z,29.96
2018-02-10T03:38:55.814Z,29.86
2018-02-10T03:40:05.301Z,29.96
2018-02-10T03:41:14.827Z,29.96
2018-02-10T03:42:23.796Z,29.96
2018-02-10T03:43:32.761Z,29.86
2018-02-10T03:44:41.752Z,29.86
2018-02-10T03:45:50.733Z,29.96
2018-02-10T03:46:59.537Z,29.96
2018-02-10T03:48:08.795Z,30.15
2018-02-10T03:49:18.364Z,30.15
2018-02-10T03:50:27.433Z,30.05
2018-02-10T03:51:36.637Z,29.86
2018-02-10T03:52:45.938Z,30.35
2018-02-10T03:53:54.929Z,30.25
2018-02-10T03:55:04.581Z,29.86
2018-02-10T03:56:13.801Z,29.96
2018-02-10T03:57:23.285Z,30.15
2018-02-10T03:58:32.036Z,29.96
2018-02-10T03:59:41.028Z,30.05
2018-02-10T04:00:50.013Z,30.05
2018-02-10T04:01:58.728Z,30.35
2018-02-10T04:03:07.540Z,30.05
2018-02-10T04:04:16.549Z,30.05
2018-02-10T04:05:26.064Z,30.25
2018-02-10T04:06:35.017Z,30.25
2018-02-10T04:07:43.711Z,30.25
2018-02-10T04:08:52.942Z,30.05
2018-02-10T04:10:02.240Z,30.05
2018-02-10T04:11:11.198Z,29.96
2018-02-10T04:12:19.894Z,29.96
2018-02-10T04:13:28.884Z,30.05
2018-02-10T04:14:37.576Z,30.05
2018-02-10T04:15:47.062Z,30.05
2018-02-10T04:16:56.267Z,30.05
2018-02-10T04:18:04.985Z,30.05
2018-02-10T04:19:13.941Z,30.25
2018-02-10T04:20:22.897Z,30.05
2018-02-10T04:21:32.693Z,29.96
2018-02-10T04:22:41.424Z,30.05
2018-02-10T04:23:50.407Z,30.05
2018-02-10T04:24:59.128Z,30.05
2018-02-10T04:26:07.903Z,30.05
2018-02-10T04:27:16.695Z,29.86
2018-02-10T04:28:25.422Z,30.05
2018-02-10T04:29:34.136Z,30.05
2018-02-10T04:30:43.096Z,29.86
2018-02-10T04:31:52.044Z,30.15
2018-02-10T04:33:01.008Z,30.05
2018-02-10T04:34:09.980Z,30.05
2018-02-10T04:35:18.686Z,29.86
2018-02-10T04:36:27.941Z,29.86
2018-02-10T04:37:37.184Z,30.15
2018-02-10T04:38:46.145Z,30.05
2018-02-10T04:39:55.111Z,30.05
2018-02-10T04:41:04.087Z,29.86
2018-02-10T04:42:13.109Z,29.86
2018-02-10T04:43:22.093Z,29.86
2018-02-10T04:44:31.044Z,29.86
2018-02-10T04:45:40.293Z,30.25
2018-02-10T04:46:49.007Z,29.86
2018-02-10T04:47:58.013Z,29.96
2018-02-10T04:49:07.036Z,29.96
2018-02-10T04:50:15.998Z,29.96
2018-02-10T04:51:24.691Z,30.15
2018-02-10T04:52:33.915Z,29.86
2018-02-10T04:53:43.156Z,29.86
2018-02-10T04:54:51.858Z,29.86
2018-02-10T04:56:00.808Z,30.35
2018-02-10T04:57:09.781Z,29.96
2018-02-10T04:58:18.747Z,29.96
2018-02-10T04:59:27.791Z,29.86
2018-02-10T05:00:36.804Z,30.05
2018-02-10T05:01:45.762Z,30.05
2018-02-10T05:02:55.088Z,30.05
2018-02-10T05:04:04.619Z,30.35
2018-02-10T05:05:14.216Z,30.15
2018-02-10T05:06:23.210Z,30.35
2018-02-10T05:07:32.430Z,30.25
2018-02-10T05:08:41.683Z,30.44
2018-02-10T05:09:50.647Z,30.15
2018-02-10T05:10:59.444Z,30.44
2018-02-10T05:12:08.197Z,30.35
2018-02-10T05:13:17.188Z,30.35
2018-02-10T05:14:25.923Z,30.35
2018-02-10T05:15:34.907Z,30.35
2018-02-10T05:16:43.854Z,30.35
2018-02-10T05:17:53.059Z,30.35
2018-02-10T05:19:02.061Z,30.35
2018-02-10T05:20:11.335Z,30.35
2018-02-10T05:21:20.815Z,30.25
2018-02-10T05:22:30.337Z,30.35
2018-02-10T05:23:39.345Z,30.35
2018-02-10T05:24:48.836Z,30.35
2018-02-10T05:25:58.074Z,30.35
2018-02-10T05:27:07.280Z,30.35
2018-02-10T05:28:16.531Z,30.35
2018-02-10T05:29:25.771Z,30.35
2018-02-10T05:30:34.483Z,30.35
2018-02-10T05:31:43.475Z,30.44
2018-02-10T05:32:52.250Z,30.35
2018-02-10T05:34:00.968Z,30.25
2018-02-10T05:35:09.677Z,30.35
2018-02-10T05:36:18.640Z,30.35
2018-02-10T05:37:27.360Z,30.35
2018-02-10T05:38:36.400Z,30.35
2018-02-10T05:39:45.373Z,30.35
2018-02-10T05:40:54.147Z,30.35
2018-02-10T05:42:03.404Z,30.35
2018-02-10T05:43:12.687Z,30.15
2018-02-10T05:44:21.423Z,30.35
2018-02-10T05:45:30.741Z,30.25
2018-02-10T05:46:40.525Z,30.35
2018-02-10T05:47:49.549Z,30.35
2018-02-10T05:48:58.528Z,30.35
2018-02-10T05:50:07.575Z,30.25
2018-02-10T05:51:16.623Z,30.35
2018-02-10T05:52:26.157Z,30.35
2018-02-10T05:53:35.098Z,30.35
2018-02-10T05:54:44.116Z,30.35
2018-02-10T05:55:53.382Z,30.15
2018-02-10T05:57:02.875Z,30.35
2018-02-10T05:58:11.833Z,30.25
2018-02-10T05:59:21.318Z,30.25
2018-02-10T06:00:30.298Z,30.35
2018-02-10T06:01:38.997Z,30.35
2018-02-10T06:02:47.697Z,30.35
2018-02-10T06:03:56.668Z,30.35
2018-02-10T06:05:05.634Z,30.35
2018-02-10T06:06:14.342Z,30.25
2018-02-10T06:07:23.306Z,30.35
2018-02-10T06:08:32.038Z,30.35
2018-02-10T06:09:40.986Z,30.25
2018-02-10T06:10:49.959Z,30.25
2018-02-10T06:11:59.205Z,30.35
2018-02-10T06:13:07.926Z,30.05
2018-02-10T06:14:16.908Z,30.15
2018-02-10T06:15:25.689Z,30.25
2018-02-10T06:16:34.680Z,30.35
2018-02-10T06:17:43.675Z,30.35
2018-02-10T06:18:52.891Z,30.35
2018-02-10T06:20:02.207Z,30.35
2018-02-10T06:21:11.454Z,30.35
2018-02-10T06:22:20.693Z,30.35
2018-02-10T06:23:29.976Z,30.35
2018-02-10T06:24:38.825Z,30.15
2018-02-10T06:25:47.560Z,30.15
2018-02-10T06:26:56.594Z,30.35
2018-02-10T06:28:05.314Z,30.35
2018-02-10T06:29:14.017Z,30.35
2018-02-10T06:30:22.741Z,30.15
2018-02-10T06:31:31.743Z,30.15
2018-02-10T06:32:40.461Z,30.35
2018-02-10T06:33:49.189Z,30.15
2018-02-10T06:34:57.893Z,30.35
2018-02-10T06:36:06.850Z,30.35
2018-02-10T06:37:15.847Z,30.05
2018-02-10T06:38:25.091Z,30.35
2018-02-10T06:39:34.615Z,30.35
2018-02-10T06:40:43.845Z,30.15
2018-02-10T06:41:52.902Z,30.05
2018-02-10T06:43:01.601Z,30.05
2018-02-10T06:44:10.577Z,30.25
2018-02-10T06:45:19.823Z,30.25
2018-02-10T06:46:29.065Z,30.25
2018-02-10T06:47:38.053Z,30.35
2018-02-10T06:48:47.062Z,30.25
2018-02-10T06:49:56.284Z,30.35
2018-02-10T06:51:05.272Z,30.15
2018-02-10T06:52:14.296Z,30.35
2018-02-10T06:53:23.070Z,30.05
2018-02-10T06:54:32.068Z,30.35
2018-02-10T06:55:41.372Z,30.25
2018-02-10T06:56:50.494Z,30.25
2018-02-10T06:57:59.534Z,30.25
2018-02-10T06:59:09.232Z,30.25
2018-02-10T07:00:18.521Z,30.25
2018-02-10T07:01:28.315Z,30.25
2018-02-10T07:02:37.859Z,30.25
2018-02-10T07:03:46.645Z,30.25
2018-02-10T07:04:55.493Z,30.25
2018-02-10T07:06:04.216Z,30.15
2018-02-10T07:07:12.941Z,30.25
2018-02-10T07:08:22.233Z,30.25
2018-02-10T07:09:30.985Z,30.15
2018-02-10T07:10:40.269Z,30.25
2018-02-10T07:11:48.979Z,30.25
2018-02-10T07:12:57.976Z,30.15
2018-02-10T07:14:07.564Z,30.35
2018-02-10T07:15:16.308Z,30.35
2018-02-10T07:16:25.836Z,30.25
2018-02-10T07:17:34.856Z,30.44
2018-02-10T07:18:44.715Z,30.15
2018-02-10T07:19:53.696Z,30.44
2018-02-10T07:21:02.427Z,30.35
2018-02-10T07:22:11.956Z,30.25
2018-02-10T07:23:20.696Z,30.44
2018-02-10T07:24:29.415Z,30.25
2018-02-10T07:25:38.934Z,30.25
2018-02-10T07:26:48.439Z,30.25
2018-02-10T07:27:57.495Z,30.25
2018-02-10T07:29:07.038Z,30.25
2018-02-10T07:30:15.813Z,30.15
2018-02-10T07:31:24.816Z,30.25
2018-02-10T07:32:33.622Z,30.25
2018-02-10T07:33:42.520Z,30.25
2018-02-10T07:34:51.213Z,30.25
2018-02-10T07:36:00.204Z,30.35
2018-02-10T07:37:09.193Z,30.25
2018-02-10T07:38:18.427Z,30.35
2018-02-10T07:39:28.060Z,30.25
2018-02-10T07:40:37.310Z,30.25
2018-02-10T07:41:46.789Z,30.25
2018-02-10T07:42:55.771Z,30.25
2018-02-10T07:44:05.028Z,30.15
2018-02-10T07:45:13.983Z,30.35
2018-02-10T07:46:22.978Z,30.35
2018-02-10T07:47:31.678Z,29.86
2018-02-10T07:48:41.159Z,29.86
2018-02-10T07:49:50.132Z,30.05
2018-02-10T07:50:58.910Z,29.96
2018-02-10T07:52:07.909Z,30.07
2018-02-10T07:53:17.172Z,29.49
2018-02-10T07:54:26.126Z,29.69
2018-02-10T07:55:34.813Z,29.4
2018-02-10T07:56:43.753Z,29.49
2018-02-10T07:57:52.746Z,29.79
2018-02-10T07:59:01.721Z,29.69
2018-02-10T08:00:10.969Z,29.22
2018-02-10T08:01:19.700Z,29.02
2018-02-10T08:02:29.191Z,29.32
2018-02-10T08:03:38.208Z,29.13
2018-02-10T08:04:47.263Z,29.03
2018-02-10T08:05:56.221Z,28.84
2018-02-10T08:07:05.186Z,29.41
2018-02-10T08:08:14.137Z,28.84
2018-02-10T08:09:22.866Z,28.93
2018-02-10T08:10:32.641Z,28.95
2018-02-10T08:11:41.914Z,29.04
2018-02-10T08:12:51.175Z,28.95
2018-02-10T08:14:00.454Z,28.66
2018-02-10T08:15:09.750Z,28.66
2018-02-10T08:16:18.798Z,28.56
2018-02-10T08:17:27.493Z,28.66
2018-02-10T08:18:36.727Z,28.75
2018-02-10T08:19:45.932Z,28.77
2018-02-10T08:20:55.141Z,28.58
2018-02-10T08:22:04.394Z,28.56
2018-02-10T08:23:13.604Z,28.58
2018-02-10T08:24:22.825Z,28.67
2018-02-10T08:25:32.058Z,28.38
2018-02-10T08:26:40.801Z,28.19
2018-02-10T08:27:50.075Z,28.29
2018-02-10T08:28:58.788Z,28.38
2018-02-10T08:30:07.504Z,28.29
2018-02-10T08:31:16.837Z,28.19
2018-02-10T08:32:26.100Z,28.38
2018-02-10T08:33:34.800Z,28.38
2018-02-10T08:34:44.037Z,28.29
2018-02-10T08:35:52.725Z,28.3
2018-02-10T08:37:01.738Z,28.19
2018-02-10T08:38:11.277Z,28.11
2018-02-10T08:39:20.564Z,28.2
2018-02-10T08:40:29.555Z,28.11
2018-02-10T08:41:38.514Z,28.11
2018-02-10T08:42:48.045Z,27.62
2018-02-10T08:43:57.287Z,27.82
2018-02-10T08:45:06.264Z,27.72
2018-02-10T08:46:15.003Z,27.72
2018-02-10T08:47:24.223Z,27.82
2018-02-10T08:48:33.196Z,27.82
2018-02-10T08:49:42.442Z,27.92
2018-02-10T08:50:51.397Z,27.82
2018-02-10T08:52:00.136Z,27.83
2018-02-10T08:53:09.097Z,27.93
2018-02-10T08:54:18.151Z,27.83
2018-02-10T08:55:27.148Z,27.74
2018-02-10T08:56:36.106Z,27.93
2018-02-10T08:57:45.329Z,27.55
2018-02-10T08:58:54.299Z,27.64
2018-02-10T09:00:03.351Z,27.55
2018-02-10T09:01:12.339Z,27.56
2018-02-10T09:02:21.851Z,27.64
2018-02-10T09:03:30.755Z,27.56
2018-02-10T09:04:39.714Z,27.46
2018-02-10T09:05:49.249Z,27.46
2018-02-10T09:06:57.939Z,27.56
2018-02-10T09:08:07.163Z,27.46
2018-02-10T09:09:16.106Z,27.56
2018-02-10T09:10:25.308Z,27.66
2018-02-10T09:11:34.264Z,27.46
2018-02-10T09:12:43.471Z,27.27
2018-02-10T09:13:53.009Z,27.37
2018-02-10T09:15:01.995Z,27.37
2018-02-10T09:16:10.989Z,27.19
2018-02-10T09:17:19.963Z,27.67
2018-02-10T09:18:28.980Z,27.67
2018-02-10T09:19:37.934Z,27.46
2018-02-10T09:20:47.187Z,27.57
2018-02-10T09:21:56.418Z,27.56
2018-02-10T09:23:05.473Z,27.46
2018-02-10T09:24:14.982Z,27.76
2018-02-10T09:25:23.950Z,27.86
2018-02-10T09:26:32.676Z,27.66
2018-02-10T09:27:42.308Z,27.67
2018-02-10T09:28:51.661Z,27.94
2018-02-10T09:30:00.635Z,27.75
2018-02-10T09:31:09.673Z,27.85
2018-02-10T09:32:18.888Z,27.85
2018-02-10T09:33:27.830Z,27.75
2018-02-10T09:34:36.795Z,27.85
2018-02-10T09:35:45.998Z,27.85
2018-02-10T09:36:54.679Z,27.75
2018-02-10T09:38:03.377Z,28.14
2018-02-10T09:39:12.064Z,28.33
2018-02-10T09:40:21.322Z,28.42
2018-02-10T09:41:30.838Z,28.52
2018-02-10T09:42:39.821Z,28.52
2018-02-10T09:43:49.111Z,28.62
2018-02-10T09:44:58.050Z,28.81
2018-02-10T09:46:07.324Z,28.72
2018-02-10T09:47:16.550Z,28.51
2018-02-10T09:48:25.312Z,28.8
2018-02-10T09:49:34.830Z,28.99
2018-02-10T09:50:44.126Z,29.08
2018-02-10T09:51:53.387Z,29.08
2018-02-10T09:53:02.084Z,28.89
2018-02-10T09:54:11.295Z,28.8
2018-02-10T09:55:19.980Z,29.28
2018-02-10T09:56:28.951Z,29.28
2018-02-10T09:57:38.145Z,29.18
2018-02-10T09:58:47.385Z,29.08
2018-02-10T09:59:56.325Z,29.36
2018-02-10T10:01:05.550Z,29.36
2018-02-10T10:02:14.524Z,29.27
2018-02-10T10:03:23.230Z,29.27
2018-02-10T10:04:32.470Z,29.65
2018-02-10T10:05:41.688Z,29.36
2018-02-10T10:06:50.640Z,29.46
2018-02-10T10:07:59.599Z,29.55
2018-02-10T10:09:08.564Z,29.65
2018-02-10T10:10:17.248Z,29.65
2018-02-10T10:11:26.203Z,29.46
2018-02-10T10:12:34.973Z,29.84
2018-02-10T10:13:44.186Z,29.74
2018-02-10T10:14:53.426Z,29.84
2018-02-10T10:16:02.681Z,29.83
2018-02-10T10:17:11.394Z,29.93
2018-02-10T10:18:20.063Z,29.83
2018-02-10T10:19:29.290Z,29.73
2018-02-10T10:20:38.256Z,30.21
2018-02-10T10:21:47.234Z,30.11
2018-02-10T10:22:56.456Z,30.21
2018-02-10T10:24:05.926Z,30.11
2018-02-10T10:25:15.146Z,30.02
2018-02-10T10:26:24.131Z,30.21
2018-02-10T10:27:32.830Z,30.11
2018-02-10T10:28:42.347Z,29.93
2018-02-10T10:29:51.642Z,30.21
2018-02-10T10:31:00.637Z,30.02
2018-02-10T10:32:09.855Z,30.02
2018-02-10T10:33:18.804Z,30.02
2018-02-10T10:34:27.787Z,30.31
2018-02-10T10:35:37.016Z,30.11
2018-02-10T10:36:46.216Z,29.93
2018-02-10T10:37:55.417Z,30.5
2018-02-10T10:39:04.899Z,30.5
2018-02-10T10:40:14.386Z,30.4
2018-02-10T10:41:24.768Z,30.29
2018-02-10T10:42:36.388Z,30.39
2018-02-10T10:43:45.728Z,30.31
2018-02-10T10:44:54.411Z,30.11
2018-02-10T10:46:03.626Z,30.39
2018-02-10T10:47:12.879Z,30.31
2018-02-10T10:48:22.104Z,30.4
2018-02-10T10:49:31.066Z,30.5
2018-02-10T10:50:40.010Z,30.68
2018-02-10T10:51:49.215Z,30.68
2018-02-10T10:52:58.159Z,30.39
2018-02-10T10:54:07.118Z,30.68
2018-02-10T10:55:16.323Z,30.49
2018-02-10T10:56:25.817Z,30.58
2018-02-10T10:57:35.276Z,30.68
2018-02-10T10:58:44.250Z,30.68
2018-02-10T10:59:53.473Z,30.68
2018-02-10T11:01:02.702Z,30.68
2018-02-10T11:02:11.403Z,30.58
2018-02-10T11:03:20.351Z,30.58
2018-02-10T11:04:29.299Z,30.58
2018-02-10T11:05:38.779Z,30.58
2018-02-10T11:06:48.283Z,30.49
2018-02-10T11:07:57.797Z,30.77
2018-02-10T11:09:06.996Z,30.68
2018-02-10T11:10:16.505Z,30.58
2018-02-10T11:11:25.478Z,30.77
2018-02-10T11:12:34.429Z,30.68
2018-02-10T11:13:43.374Z,30.77
2018-02-10T11:14:52.878Z,30.58
2018-02-10T11:16:01.579Z,30.68
2018-02-10T11:17:10.603Z,30.77
2018-02-10T11:18:19.976Z,30.68
2018-02-10T11:19:28.920Z,30.77
2018-02-10T11:20:38.159Z,30.77
2018-02-10T11:21:46.883Z,30.68
2018-02-10T11:22:55.586Z,30.58
2018-02-10T11:24:04.817Z,30.58
2018-02-10T11:25:13.597Z,30.68
2018-02-10T11:26:22.573Z,30.68
2018-02-10T11:27:32.102Z,30.68
2018-02-10T11:28:41.078Z,30.68
2018-02-10T11:29:49.752Z,30.68
2018-02-10T11:30:58.445Z,30.58
2018-02-10T11:32:08.185Z,30.68
2018-02-10T11:33:17.398Z,30.58
2018-02-10T11:34:26.905Z,30.58
2018-02-10T11:35:35.868Z,30.77
2018-02-10T11:36:45.075Z,30.58
2018-02-10T11:37:53.767Z,30.57
2018-02-10T11:39:02.986Z,30.77
2018-02-10T11:40:12.186Z,30.58
2018-02-10T11:41:21.509Z,30.49
2018-02-10T11:42:31.249Z,30.68
2018-02-10T11:43:40.205Z,30.68
2018-02-10T11:44:49.203Z,30.58
2018-02-10T11:45:58.184Z,30.58
2018-02-10T11:47:07.134Z,30.58
2018-02-10T11:48:15.867Z,30.66
2018-02-10T11:49:24.902Z,30.66
2018-02-10T11:50:34.120Z,30.58
2018-02-10T11:51:43.351Z,30.77
2018-02-10T11:52:52.813Z,30.58
2018-02-10T11:54:01.809Z,30.68
2018-02-10T11:55:10.788Z,30.58
2018-02-10T11:56:19.474Z,30.58
2018-02-10T11:57:28.181Z,30.49
2018-02-10T11:58:37.147Z,30.47
2018-02-10T11:59:46.356Z,30.77
2018-02-10T12:00:55.574Z,30.49
2018-02-10T12:02:04.858Z,30.57
2018-02-10T12:03:13.801Z,30.68
2018-02-10T12:04:22.750Z,30.66
2018-02-10T12:05:31.454Z,30.68
2018-02-10T12:06:40.405Z,30.66
2018-02-10T12:07:49.886Z,30.68
2018-02-10T12:08:58.847Z,30.68
2018-02-10T12:10:07.857Z,30.68
2018-02-10T12:11:16.865Z,30.58
2018-02-10T12:12:25.822Z,30.66
2018-02-10T12:13:34.856Z,30.76
2018-02-10T12:14:43.539Z,30.66
2018-02-10T12:15:53.056Z,30.68
2018-02-10T12:17:01.752Z,30.76
2018-02-10T12:18:10.698Z,30.76
2018-02-10T12:19:19.927Z,30.68
2018-02-10T12:20:28.607Z,30.77
2018-02-10T12:21:37.839Z,30.66
2018-02-10T12:22:47.563Z,30.66
2018-02-10T12:23:57.049Z,30.77
2018-02-10T12:25:05.764Z,30.58
2018-02-10T12:26:14.752Z,30.57
2018-02-10T12:27:23.603Z,30.58
2018-02-10T12:28:32.279Z,30.68
2018-02-10T12:29:41.805Z,30.66
2018-02-10T12:30:51.024Z,30.66
2018-02-10T12:31:59.727Z,30.77
2018-02-10T12:33:08.418Z,30.66
2018-02-10T12:34:17.661Z,30.57
2018-02-10T12:35:26.896Z,30.66
2018-02-10T12:36:35.850Z,30.57
2018-02-10T12:37:44.552Z,30.66
2018-02-10T12:38:53.773Z,30.66
2018-02-10T12:40:02.713Z,30.57
2018-02-10T12:41:11.985Z,30.66
2018-02-10T12:42:20.674Z,30.58
2018-02-10T12:43:29.892Z,30.66
2018-02-10T12:44:38.842Z,30.76
2018-02-10T12:45:48.048Z,30.66
2018-02-10T12:46:57.364Z,30.66
2018-02-10T12:48:06.304Z,30.76
2018-02-10T12:49:15.052Z,30.66
2018-02-10T12:50:24.570Z,30.68
2018-02-10T12:51:33.304Z,30.66
2018-02-10T12:52:42.395Z,30.66
2018-02-10T12:53:51.109Z,30.85
2018-02-10T12:55:00.067Z,30.57
2018-02-10T12:56:09.039Z,30.76
2018-02-10T12:57:17.797Z,30.87
2018-02-10T12:58:27.034Z,30.85
2018-02-10T12:59:35.997Z,30.66
2018-02-10T13:00:44.956Z,30.57
2018-02-10T13:01:53.926Z,30.77
2018-02-10T13:03:03.146Z,30.95
2018-02-10T13:04:12.086Z,30.76
2018-02-10T13:05:21.357Z,30.66
2018-02-10T13:06:30.568Z,30.68
2018-02-10T13:07:40.103Z,30.76
2018-02-10T13:08:49.054Z,30.57
2018-02-10T13:09:57.795Z,30.95
2018-02-10T13:11:06.808Z,30.66
2018-02-10T13:12:15.760Z,30.58
2018-02-10T13:13:24.997Z,30.58
2018-02-10T13:14:33.680Z,30.66
2018-02-10T13:15:42.372Z,30.66
2018-02-10T13:16:51.122Z,30.77
2018-02-10T13:18:00.635Z,30.77
2018-02-10T13:19:09.322Z,30.77
2018-02-10T13:20:17.999Z,30.76
2018-02-10T13:21:27.231Z,30.87
2018-02-10T13:22:36.717Z,30.76
2018-02-10T13:23:45.473Z,30.85
2018-02-10T13:24:54.169Z,30.85
2018-02-10T13:26:02.865Z,30.97
2018-02-10T13:27:11.826Z,30.85
2018-02-10T13:28:20.542Z,30.87
2018-02-10T13:29:29.790Z,30.95
2018-02-10T13:30:39.326Z,30.95
2018-02-10T13:31:48.312Z,30.87
2018-02-10T13:32:57.545Z,30.85
2018-02-10T13:34:07.046Z,30.85
2018-02-10T13:35:15.998Z,30.66
2018-02-10T13:36:24.969Z,30.85
2018-02-10T13:37:33.980Z,30.68
2018-02-10T13:38:42.948Z,30.68
2018-02-10T13:39:51.915Z,30.76
2018-02-10T13:41:01.207Z,30.76
2018-02-10T13:42:10.143Z,30.77
2018-02-10T13:43:19.083Z,30.76
2018-02-10T13:44:27.781Z,30.77
2018-02-10T13:45:36.466Z,30.87
2018-02-10T13:46:45.449Z,30.76
2018-02-10T13:47:54.394Z,30.76
2018-02-10T13:49:03.337Z,30.85
2018-02-10T13:50:12.052Z,30.85
2018-02-10T13:51:20.777Z,30.85
2018-02-10T13:52:29.497Z,30.85
2018-02-10T13:53:39.298Z,30.66
2018-02-10T13:54:48.235Z,30.77
2018-02-10T13:55:56.934Z,30.85
2018-02-10T13:57:06.135Z,30.87
2018-02-10T13:58:15.624Z,30.97
2018-02-10T13:59:24.305Z,30.95
2018-02-10T14:00:33.285Z,30.95
2018-02-10T14:01:42.491Z,31.05
2018-02-10T14:02:51.445Z,31.05
2018-02-10T14:04:00.138Z,31.05
2018-02-10T14:05:09.885Z,31.06
2018-02-10T14:06:19.095Z,31.05
2018-02-10T14:07:28.036Z,31.06
2018-02-10T14:08:37.003Z,30.95
2018-02-10T14:09:46.227Z,31.05
2018-02-10T14:10:55.774Z,31.15
2018-02-10T14:12:04.736Z,31.05
2018-02-10T14:13:14.237Z,31.05
2018-02-10T14:14:23.476Z,31.15
2018-02-10T14:15:32.770Z,31.15
2018-02-10T14:16:41.763Z,31.15
2018-02-10T14:17:51.290Z,31.15
2018-02-10T14:19:00.250Z,31.15
2018-02-10T14:20:08.990Z,31.15
2018-02-10T14:21:17.959Z,31.15
2018-02-10T14:22:27.206Z,31.24
2018-02-10T14:23:36.208Z,31.15
2018-02-10T14:24:45.174Z,31.15
2018-02-10T14:25:54.659Z,31.15
2018-02-10T14:27:03.352Z,31.15
2018-02-10T14:28:12.037Z,31.15
2018-02-10T14:29:20.724Z,31.24
2018-02-10T14:30:29.680Z,31.05
2018-02-10T14:31:38.902Z,31.05
2018-02-10T14:32:47.579Z,31.15
2018-02-10T14:33:56.783Z,31.15
2018-02-10T14:35:06.281Z,31.05
2018-02-10T14:36:14.972Z,31.15
2018-02-10T14:37:23.936Z,31.34
2018-02-10T14:38:32.890Z,31.24
2018-02-10T14:39:41.876Z,31.24
2018-02-10T14:40:50.560Z,31.05
2018-02-10T14:41:59.784Z,31.24
2018-02-10T14:43:09.283Z,31.24
2018-02-10T14:44:17.968Z,31.34
2018-02-10T14:45:26.668Z,31.34
2018-02-10T14:46:35.381Z,31.24
2018-02-10T14:47:44.382Z,31.24
2018-02-10T14:48:53.877Z,31.05
2018-02-10T14:50:02.863Z,31.05